Terminal Aerodrome Forecast
Issued by NWS Buffalo, NY

Home | Current Version | Previous Version | Text Only | Print | Product List | Glossary On
Versions: 1 2 3 4 5 6 7 8 9 10 11 12 13 14 15 16 17 18 19 20 21 22 23 24 25
000
FTUS41 KBUF 192108 AAA
TAFART
TAF AMD
KART 192108Z 1921/2018 26010KT P6SM BKN050
     FM200100 30006KT P6SM BKN035
      TEMPO 2002/2006 BKN025
     FM200700 33006KT P6SM SCT025
     FM201100 02008KT P6SM SCT250=

USA.gov is the U.S. government's official web portal to all federal, state and local government web resources and services.